Time,TemperatureF,DewpointF,PressureIn,WindDirection,WindDirectionDegrees,WindSpeedMPH,WindSpeedGustMPH,Humidity,HourlyPrecipIn,Conditions,Clouds,dailyrainin,SolarRadiationWatts/m^2,SoftwareType,DateUTC
2014-04-19 00:01:00,52.0,38.0,-100.00,NNE,17,5.0,7.0,59,0.00,,,0.00,0.000000,,2014-04-19 07:01:00,
2014-04-19 00:11:00,51.0,37.0,-100.00,North,355,2.0,6.0,58,0.00,,,0.00,0.000000,,2014-04-19 07:11:00,
2014-04-19 00:42:00,51.0,37.0,-100.00,North,355,2.0,6.0,58,0.00,,,0.00,0.000000,,2014-04-19 07:42:00,
2014-04-19 00:53:00,51.0,37.0,-100.00,North,355,2.0,6.0,58,0.00,,,0.00,0.000000,,2014-04-19 07:53:00,
2014-04-19 01:02:00,51.0,37.0,-100.00,North,355,2.0,6.0,58,0.00,,,0.00,0.000000,,2014-04-19 08:02:00,
2014-04-19 01:11:00,51.0,37.0,-100.00,North,349,3.0,4.0,58,0.00,,,0.00,0.000000,,2014-04-19 08:11:00,
2014-04-19 01:42:00,51.0,37.0,-100.00,North,349,3.0,4.0,58,0.00,,,0.00,0.000000,,2014-04-19 08:42:00,
2014-04-19 01:52:00,51.0,37.0,-100.00,North,349,3.0,4.0,58,0.00,,,0.00,0.000000,,2014-04-19 08:52:00,
2014-04-19 02:01:00,51.0,37.0,-100.00,North,349,3.0,4.0,58,0.00,,,0.00,0.000000,,2014-04-19 09:01:00,
2014-04-19 02:11:00,50.0,35.0,-100.00,North,358,3.0,7.0,57,0.00,,,0.00,0.000000,,2014-04-19 09:11:00,
2014-04-19 02:44:00,50.0,35.0,-100.00,North,358,3.0,7.0,57,0.00,,,0.00,0.000000,,2014-04-19 09:44:00,
2014-04-19 02:54:00,50.0,35.0,-100.00,North,358,3.0,7.0,57,0.00,,,0.00,0.000000,,2014-04-19 09:54:00,
2014-04-19 03:03:00,50.0,35.0,-100.00,North,358,3.0,7.0,57,0.00,,,0.00,0.000000,,2014-04-19 10:03:00,
2014-04-19 03:11:00,51.0,38.0,-100.00,NNE,23,5.0,6.0,62,0.00,,,0.00,0.000000,,2014-04-19 10:11:00,
2014-04-19 03:42:00,51.0,38.0,-100.00,NNE,23,5.0,6.0,62,0.00,,,0.00,0.000000,,2014-04-19 10:42:00,
2014-04-19 03:53:00,51.0,38.0,-100.00,NNE,23,5.0,6.0,62,0.00,,,0.00,0.000000,,2014-04-19 10:53:00,
2014-04-19 04:02:00,51.0,38.0,-100.00,NNE,23,5.0,6.0,62,0.00,,,0.00,0.000000,,2014-04-19 11:02:00,
2014-04-19 04:11:00,50.0,36.0,-100.00,NNE,27,4.0,6.0,59,0.00,,,0.00,0.000000,,2014-04-19 11:11:00,
2014-04-19 04:43:00,50.0,36.0,-100.00,NNE,27,4.0,6.0,59,0.00,,,0.00,0.000000,,2014-04-19 11:43:00,
2014-04-19 04:52:00,50.0,36.0,-100.00,NNE,27,4.0,6.0,59,0.00,,,0.00,0.000000,,2014-04-19 11:52:00,
2014-04-19 05:02:00,50.0,36.0,-100.00,NNE,27,4.0,6.0,59,0.00,,,0.00,0.000000,,2014-04-19 12:02:00,
2014-04-19 05:11:00,49.0,37.0,-100.00,East,91,4.0,5.0,64,0.00,,,0.00,0.000000,,2014-04-19 12:11:00,
2014-04-19 05:42:00,49.0,37.0,-100.00,East,91,4.0,5.0,64,0.00,,,0.00,0.000000,,2014-04-19 12:42:00,
2014-04-19 05:52:00,49.0,37.0,-100.00,East,91,4.0,5.0,64,0.00,,,0.00,0.000000,,2014-04-19 12:52:00,
2014-04-19 06:02:00,49.0,37.0,-100.00,East,91,4.0,5.0,64,0.00,,,0.00,0.000000,,2014-04-19 13:02:00,
2014-04-19 06:11:00,49.0,36.0,-100.00,NE,36,5.0,6.0,60,0.00,,,0.00,6.000000,,2014-04-19 13:11:00,
2014-04-19 06:42:00,49.0,36.0,-100.00,NE,36,5.0,6.0,60,0.00,,,0.00,6.000000,,2014-04-19 13:42:00,
2014-04-19 06:52:00,49.0,36.0,-100.00,NE,36,5.0,6.0,60,0.00,,,0.00,6.000000,,2014-04-19 13:52:00,
2014-04-19 07:01:00,49.0,36.0,-100.00,NE,36,5.0,6.0,60,0.00,,,0.00,6.000000,,2014-04-19 14:01:00,
2014-04-19 07:11:00,54.0,41.0,-100.00,NE,41,4.0,6.0,62,0.00,,,-99.99,124.000000,,2014-04-19 14:11:00,
2014-04-19 07:42:00,54.0,41.0,-100.00,NE,41,4.0,6.0,62,0.00,,,-99.99,124.000000,,2014-04-19 14:42:00,
2014-04-19 07:52:00,54.0,41.0,-100.00,NE,41,4.0,6.0,62,0.00,,,-99.99,124.000000,,2014-04-19 14:52:00,
2014-04-19 08:01:00,54.0,41.0,-100.00,NE,41,4.0,6.0,62,0.00,,,-99.99,124.000000,,2014-04-19 15:01:00,
2014-04-19 08:11:00,56.0,36.0,-100.00,ESE,120,4.0,8.0,47,0.00,,,-99.99,272.000000,,2014-04-19 15:11:00,
2014-04-19 08:44:00,56.0,36.0,-100.00,ESE,120,4.0,8.0,47,0.00,,,-99.99,272.000000,,2014-04-19 15:44:00,
2014-04-19 08:54:00,56.0,36.0,-100.00,ESE,120,4.0,8.0,47,0.00,,,-99.99,272.000000,,2014-04-19 15:54:00,
2014-04-19 09:03:00,56.0,36.0,-100.00,ESE,120,4.0,8.0,47,0.00,,,-99.99,272.000000,,2014-04-19 16:03:00,
2014-04-19 09:11:00,59.0,39.0,-100.00,ESE,119,6.0,9.0,48,0.00,,,-99.99,255.000000,,2014-04-19 16:11:00,
2014-04-19 09:43:00,59.0,39.0,-100.00,ESE,119,6.0,9.0,48,0.00,,,-99.99,255.000000,,2014-04-19 16:43:00,
2014-04-19 09:53:00,59.0,39.0,-100.00,ESE,119,6.0,9.0,48,0.00,,,-99.99,255.000000,,2014-04-19 16:53:00,
2014-04-19 10:02:00,59.0,39.0,-100.00,ESE,119,6.0,9.0,48,0.00,,,-99.99,255.000000,,2014-04-19 17:02:00,
2014-04-19 10:11:00,61.0,40.0,-100.00,ESE,119,4.0,9.0,45,0.00,,,-99.99,349.000000,,2014-04-19 17:11:00,
2014-04-19 10:43:00,61.0,40.0,-100.00,ESE,119,4.0,9.0,45,0.00,,,-99.99,349.000000,,2014-04-19 17:43:00,
2014-04-19 10:52:00,61.0,40.0,-100.00,ESE,119,4.0,9.0,45,0.00,,,-99.99,349.000000,,2014-04-19 17:52:00,
2014-04-19 11:02:00,61.0,40.0,-100.00,ESE,119,4.0,9.0,45,0.00,,,-99.99,349.000000,,2014-04-19 18:02:00,
2014-04-19 11:11:00,63.0,37.0,-100.00,South,176,6.0,12.0,38,0.00,,,-99.99,613.000000,,2014-04-19 18:11:00,
2014-04-19 11:42:00,63.0,37.0,-100.00,South,176,6.0,12.0,38,0.00,,,-99.99,613.000000,,2014-04-19 18:42:00,
2014-04-19 11:52:00,63.0,37.0,-100.00,South,176,6.0,12.0,38,0.00,,,-99.99,613.000000,,2014-04-19 18:52:00,
2014-04-19 12:02:00,63.0,37.0,-100.00,South,176,6.0,12.0,38,0.00,,,-99.99,613.000000,,2014-04-19 19:02:00,
2014-04-19 12:11:00,69.0,41.0,-100.00,SSW,196,6.0,14.0,36,0.00,,,-99.99,864.000000,,2014-04-19 19:11:00,
2014-04-19 12:42:00,69.0,41.0,-100.00,SSW,196,6.0,14.0,36,0.00,,,-99.99,864.000000,,2014-04-19 19:42:00,
2014-04-19 12:52:00,69.0,41.0,-100.00,SSW,196,6.0,14.0,36,0.00,,,-99.99,864.000000,,2014-04-19 19:52:00,
2014-04-19 13:02:00,69.0,41.0,-100.00,SSW,196,6.0,14.0,36,0.00,,,-99.99,864.000000,,2014-04-19 20:02:00,
2014-04-19 13:11:00,67.0,35.0,-100.00,South,182,10.0,17.0,30,0.00,,,-99.99,741.000000,,2014-04-19 20:11:00,
2014-04-19 13:42:00,67.0,35.0,-100.00,South,182,10.0,17.0,30,0.00,,,-99.99,741.000000,,2014-04-19 20:42:00,
2014-04-19 13:52:00,67.0,35.0,-100.00,South,182,10.0,17.0,30,0.00,,,-99.99,741.000000,,2014-04-19 20:52:00,
2014-04-19 14:01:00,67.0,35.0,-100.00,South,182,10.0,17.0,30,0.00,,,-99.99,741.000000,,2014-04-19 21:01:00,
2014-04-19 14:11:00,72.0,38.0,-100.00,SSW,197,10.0,18.0,29,0.00,,,0.00,967.000000,,2014-04-19 21:11:00,
2014-04-19 14:43:00,72.0,38.0,-100.00,SSW,197,10.0,18.0,29,0.00,,,0.00,967.000000,,2014-04-19 21:43:00,
2014-04-19 14:54:00,72.0,38.0,-100.00,SSW,197,10.0,18.0,29,0.00,,,0.00,967.000000,,2014-04-19 21:54:00,
2014-04-19 15:02:00,72.0,38.0,-100.00,SSW,197,10.0,18.0,29,0.00,,,0.00,967.000000,,2014-04-19 22:02:00,
2014-04-19 15:11:00,70.0,39.0,-100.00,South,179,12.0,20.0,32,0.00,,,0.00,833.000000,,2014-04-19 22:11:00,
2014-04-19 15:43:00,70.0,39.0,-100.00,South,179,12.0,20.0,32,0.00,,,0.00,833.000000,,2014-04-19 22:43:00,
2014-04-19 15:53:00,70.0,39.0,-100.00,South,179,12.0,20.0,32,0.00,,,0.00,833.000000,,2014-04-19 22:53:00,
2014-04-19 16:02:00,70.0,39.0,-100.00,South,179,12.0,20.0,32,0.00,,,0.00,833.000000,,2014-04-19 23:02:00,
2014-04-19 16:11:00,69.0,38.0,-100.00,South,172,8.0,18.0,32,0.00,,,0.00,733.000000,,2014-04-19 23:11:00,
2014-04-19 16:43:00,69.0,38.0,-100.00,South,172,8.0,18.0,32,0.00,,,0.00,733.000000,,2014-04-19 23:43:00,
2014-04-19 16:53:00,69.0,38.0,-100.00,South,172,8.0,18.0,32,0.00,,,0.00,733.000000,,2014-04-19 23:53:00,
2014-04-19 17:01:00,69.0,38.0,-100.00,South,172,8.0,18.0,32,0.00,,,0.00,733.000000,,2014-04-20 00:01:00,
2014-04-19 17:11:00,68.0,38.0,-100.00,SSE,168,8.0,15.0,33,0.00,,,0.00,500.000000,,2014-04-20 00:11:00,
2014-04-19 17:42:00,68.0,38.0,-100.00,SSE,168,8.0,15.0,33,0.00,,,0.00,500.000000,,2014-04-20 00:42:00,
2014-04-19 17:52:00,68.0,38.0,-100.00,SSE,168,8.0,15.0,33,0.00,,,0.00,500.000000,,2014-04-20 00:52:00,
2014-04-19 18:01:00,68.0,38.0,-100.00,SSE,168,8.0,15.0,33,0.00,,,0.00,500.000000,,2014-04-20 01:01:00,
2014-04-19 18:11:00,63.0,36.0,-100.00,SSE,168,6.0,12.0,36,0.00,,,0.00,159.000000,,2014-04-20 01:11:00,
2014-04-19 18:42:00,63.0,36.0,-100.00,SSE,168,6.0,12.0,36,0.00,,,0.00,159.000000,,2014-04-20 01:42:00,
2014-04-19 18:52:00,63.0,36.0,-100.00,SSE,168,6.0,12.0,36,0.00,,,0.00,159.000000,,2014-04-20 01:52:00,
2014-04-19 19:02:00,63.0,36.0,-100.00,SSE,168,6.0,12.0,36,0.00,,,0.00,159.000000,,2014-04-20 02:02:00,
2014-04-19 19:11:00,60.0,37.0,-100.00,SSE,154,4.0,9.0,42,0.00,,,0.00,12.000000,,2014-04-20 02:11:00,
2014-04-19 19:42:00,60.0,37.0,-100.00,SSE,154,4.0,9.0,42,0.00,,,0.00,12.000000,,2014-04-20 02:42:00,
2014-04-19 19:52:00,60.0,37.0,-100.00,SSE,154,4.0,9.0,42,0.00,,,0.00,12.000000,,2014-04-20 02:52:00,
2014-04-19 20:01:00,60.0,37.0,-100.00,SSE,154,4.0,9.0,42,0.00,,,0.00,12.000000,,2014-04-20 03:01:00,
2014-04-19 20:11:00,60.0,37.0,-100.00,ESE,107,5.0,9.0,43,0.00,,,0.00,0.000000,,2014-04-20 03:11:00,
2014-04-19 20:44:00,60.0,37.0,-100.00,ESE,107,5.0,9.0,43,0.00,,,0.00,0.000000,,2014-04-20 03:44:00,
2014-04-19 20:54:00,60.0,37.0,-100.00,ESE,107,5.0,9.0,43,0.00,,,0.00,0.000000,,2014-04-20 03:54:00,
2014-04-19 21:03:00,-999.0,-99.9,-100.00,ESE,107,5.0,9.0,-999,0.00,,,0.00,0.000000,,2014-04-20 04:03:00,
2014-04-19 21:11:00,56.0,39.0,-100.00,North,8,3.0,6.0,52,0.00,,,0.00,0.000000,,2014-04-20 04:11:00,
2014-04-19 21:43:00,56.0,39.0,-100.00,North,8,3.0,6.0,52,0.00,,,0.00,0.000000,,2014-04-20 04:43:00,
2014-04-19 21:54:00,56.0,39.0,-100.00,North,8,3.0,6.0,52,0.00,,,0.00,0.000000,,2014-04-20 04:54:00,
2014-04-19 22:03:00,56.0,39.0,-100.00,North,8,3.0,6.0,52,0.00,,,0.00,0.000000,,2014-04-20 05:03:00,
2014-04-19 22:11:00,55.0,40.0,-100.00,NE,36,4.0,6.0,56,0.00,,,0.00,0.000000,,2014-04-20 05:11:00,
2014-04-19 22:44:00,55.0,40.0,-100.00,NE,36,4.0,6.0,56,0.00,,,0.00,0.000000,,2014-04-20 05:44:00,
2014-04-19 22:53:00,55.0,40.0,-100.00,NE,36,4.0,6.0,56,0.00,,,0.00,0.000000,,2014-04-20 05:53:00,
2014-04-19 23:02:00,55.0,40.0,-100.00,NE,36,4.0,6.0,56,0.00,,,0.00,0.000000,,2014-04-20 06:02:00,